RYR37UN LIRP-LZIB
Flight info
| Callsign | RYR37UN |
|---|---|
| Flight time | 1h 10m |
| Altitude | 38000 |
| Route | BEROK DCT OSBUL DCT MOBDO/N0433F370 DCT MALUG DCT ABTAN DCT NIGSI DCT BEGLA DCT KUVEX |
| Aircraft | B738/M-SDE3FGILRWY/SB1 |
Departure
| Time | 2026-05-04 19:13 |
|---|---|
| Airport | Pisa International Airport (LIRP) |
Arrival
| Time | 2026-05-04 20:23 |
|---|---|
| Airport | M. R. Štefánik Airport (LZIB) |
| Time | Latitude | Longitude | Altitude | Speed | Heading |
|---|---|---|---|---|---|
| 2026-05-04 18:45 | 43.69769 | 10.39860 | 13 ft | 0 kts | 9° |
| 2026-05-04 19:01 | 43.69749 | 10.39856 | 13 ft | 4 kts | 6° |
| 2026-05-04 19:01 | 43.69726 | 10.39852 | 14 ft | 4 kts | 17° |
| 2026-05-04 19:01 | 43.69706 | 10.39834 | 15 ft | 4 kts | 63° |
| 2026-05-04 19:02 | 43.69699 | 10.39805 | 17 ft | 1 kts | 83° |
| 2026-05-04 19:02 | 43.69699 | 10.39799 | 17 ft | 0 kts | 83° |
| 2026-05-04 19:05 | 43.69701 | 10.39822 | 14 ft | 5 kts | 82° |
| 2026-05-04 19:05 | 43.69700 | 10.39890 | 13 ft | 8 kts | 99° |
| 2026-05-04 19:06 | 43.69690 | 10.39967 | 13 ft | 8 kts | 98° |
| 2026-05-04 19:06 | 43.69674 | 10.40039 | 13 ft | 8 kts | 133° |
| 2026-05-04 19:06 | 43.69622 | 10.40058 | 14 ft | 8 kts | 173° |
| 2026-05-04 19:06 | 43.69554 | 10.40072 | 14 ft | 12 kts | 172° |
| 2026-05-04 19:07 | 43.69463 | 10.40090 | 16 ft | 13 kts | 171° |
| 2026-05-04 19:07 | 43.69373 | 10.40104 | 17 ft | 13 kts | 184° |
| 2026-05-04 19:07 | 43.69294 | 10.40041 | 16 ft | 14 kts | 217° |
| 2026-05-04 19:07 | 43.69205 | 10.39949 | 16 ft | 18 kts | 217° |
| 2026-05-04 19:08 | 43.69089 | 10.39829 | 14 ft | 24 kts | 217° |
| 2026-05-04 19:08 | 43.68947 | 10.39684 | 13 ft | 27 kts | 217° |
| 2026-05-04 19:08 | 43.68787 | 10.39519 | 12 ft | 29 kts | 217° |
| 2026-05-04 19:08 | 43.68631 | 10.39358 | 13 ft | 27 kts | 217° |
| 2026-05-04 19:09 | 43.68485 | 10.39207 | 12 ft | 25 kts | 217° |
| 2026-05-04 19:09 | 43.68342 | 10.39060 | 11 ft | 28 kts | 217° |
| 2026-05-04 19:09 | 43.68176 | 10.38889 | 9 ft | 30 kts | 217° |
| 2026-05-04 19:09 | 43.68015 | 10.38724 | 9 ft | 28 kts | 216° |
| 2026-05-04 19:10 | 43.67863 | 10.38567 | 11 ft | 26 kts | 217° |
| 2026-05-04 19:10 | 43.67727 | 10.38427 | 12 ft | 22 kts | 217° |
| 2026-05-04 19:10 | 43.67614 | 10.38311 | 9 ft | 19 kts | 217° |
| 2026-05-04 19:10 | 43.67510 | 10.38204 | 8 ft | 18 kts | 217° |
| 2026-05-04 19:11 | 43.67419 | 10.38114 | 8 ft | 11 kts | 207° |
| 2026-05-04 19:11 | 43.67365 | 10.38140 | 8 ft | 9 kts | 132° |
| 2026-05-04 19:11 | 43.67331 | 10.38207 | 12 ft | 8 kts | 126° |
| 2026-05-04 19:11 | 43.67295 | 10.38277 | 14 ft | 7 kts | 120° |
| 2026-05-04 19:12 | 43.67314 | 10.38329 | 14 ft | 7 kts | 40° |
| 2026-05-04 19:12 | 43.67719 | 10.38747 | 14 ft | 94 kts | 37° |
| 2026-05-04 19:12 | 43.68409 | 10.39458 | 13 ft | 150 kts | 37° |
| 2026-05-04 19:13 | 43.69340 | 10.40408 | 269 ft | 171 kts | 36° |
| 2026-05-04 19:13 | 43.70303 | 10.41376 | 956 ft | 170 kts | 38° |
| 2026-05-04 19:13 | 43.71237 | 10.42349 | 1621 ft | 171 kts | 39° |
| 2026-05-04 19:13 | 43.72300 | 10.43150 | 2182 ft | 178 kts | 20° |
| 2026-05-04 19:14 | 43.73539 | 10.43411 | 2759 ft | 184 kts | 360° |
| 2026-05-04 19:14 | 43.74804 | 10.43142 | 3394 ft | 184 kts | 341° |
| 2026-05-04 19:14 | 43.75992 | 10.42503 | 3951 ft | 190 kts | 339° |
| 2026-05-04 19:14 | 43.77307 | 10.41801 | 4185 ft | 213 kts | 339° |
| 2026-05-04 19:15 | 43.78757 | 10.41037 | 4351 ft | 233 kts | 339° |
| 2026-05-04 19:15 | 43.80333 | 10.40210 | 4615 ft | 249 kts | 340° |
| 2026-05-04 19:15 | 43.81966 | 10.39355 | 5214 ft | 252 kts | 340° |
| 2026-05-04 19:15 | 43.83606 | 10.38498 | 5974 ft | 251 kts | 340° |
| 2026-05-04 19:16 | 43.85249 | 10.37639 | 6698 ft | 253 kts | 339° |
| 2026-05-04 19:16 | 43.86908 | 10.36772 | 7358 ft | 256 kts | 339° |
| 2026-05-04 19:16 | 43.88588 | 10.35919 | 8069 ft | 258 kts | 344° |
| 2026-05-04 19:16 | 43.90372 | 10.35539 | 8762 ft | 261 kts | 355° |
| 2026-05-04 19:17 | 43.92198 | 10.35308 | 9463 ft | 265 kts | 354° |
| 2026-05-04 19:17 | 43.94052 | 10.35044 | 10163 ft | 270 kts | 353° |
| 2026-05-04 19:17 | 43.95924 | 10.34762 | 10894 ft | 271 kts | 353° |
| 2026-05-04 19:17 | 43.97822 | 10.34469 | 11562 ft | 275 kts | 352° |
| 2026-05-04 19:18 | 43.99732 | 10.34303 | 12354 ft | 275 kts | 359° |
| 2026-05-04 19:18 | 44.01631 | 10.34392 | 13214 ft | 273 kts | 360° |
| 2026-05-04 19:18 | 44.03549 | 10.34521 | 13865 ft | 279 kts | 0° |
| 2026-05-04 19:18 | 44.05546 | 10.34647 | 14196 ft | 297 kts | 0° |
| 2026-05-04 19:19 | 44.07676 | 10.34767 | 14460 ft | 315 kts | 360° |
| 2026-05-04 19:19 | 44.09926 | 10.34883 | 14750 ft | 333 kts | 360° |
| 2026-05-04 19:19 | 44.12308 | 10.34996 | 15017 ft | 351 kts | 359° |
| 2026-05-04 19:19 | 44.14791 | 10.35110 | 15457 ft | 362 kts | 360° |
| 2026-05-04 19:20 | 44.17322 | 10.35200 | 16177 ft | 365 kts | 357° |
| 2026-05-04 19:20 | 44.19870 | 10.35070 | 16918 ft | 367 kts | 354° |
| 2026-05-04 19:20 | 44.22431 | 10.34824 | 17606 ft | 372 kts | 353° |
| 2026-05-04 19:20 | 44.24147 | 10.34640 | 18065 ft | 375 kts | 353° |
| 2026-05-04 19:21 | 44.26760 | 10.34360 | 18726 ft | 379 kts | 353° |
| 2026-05-04 19:21 | 44.29402 | 10.34088 | 19313 ft | 382 kts | 353° |
| 2026-05-04 19:21 | 44.32073 | 10.33827 | 19917 ft | 386 kts | 353° |
| 2026-05-04 19:21 | 44.34765 | 10.33574 | 20508 ft | 390 kts | 354° |
| 2026-05-04 19:22 | 44.37486 | 10.33324 | 21103 ft | 393 kts | 354° |
| 2026-05-04 19:22 | 44.40223 | 10.33077 | 21685 ft | 396 kts | 354° |
| 2026-05-04 19:22 | 44.42995 | 10.32828 | 22221 ft | 401 kts | 354° |
| 2026-05-04 19:22 | 44.45789 | 10.32578 | 22789 ft | 404 kts | 354° |
| 2026-05-04 19:23 | 44.48602 | 10.32326 | 23365 ft | 407 kts | 354° |
| 2026-05-04 19:23 | 44.51450 | 10.32070 | 23878 ft | 411 kts | 354° |
| 2026-05-04 19:23 | 44.54311 | 10.31814 | 24320 ft | 414 kts | 353° |
| 2026-05-04 19:23 | 44.57199 | 10.31554 | 24781 ft | 417 kts | 353° |
| 2026-05-04 19:24 | 44.60096 | 10.31293 | 25293 ft | 418 kts | 353° |
| 2026-05-04 19:24 | 44.63005 | 10.31031 | 25708 ft | 420 kts | 353° |
| 2026-05-04 19:24 | 44.65929 | 10.30767 | 26153 ft | 422 kts | 352° |
| 2026-05-04 19:24 | 44.68873 | 10.30502 | 26586 ft | 425 kts | 352° |
| 2026-05-04 19:25 | 44.71831 | 10.30236 | 27020 ft | 427 kts | 352° |
| 2026-05-04 19:25 | 44.74810 | 10.29966 | 27416 ft | 430 kts | 352° |
| 2026-05-04 19:25 | 44.77807 | 10.29696 | 27804 ft | 434 kts | 353° |
| 2026-05-04 19:25 | 44.80853 | 10.29891 | 28199 ft | 443 kts | 6° |
| 2026-05-04 19:26 | 44.83858 | 10.31042 | 28496 ft | 454 kts | 19° |
| 2026-05-04 19:26 | 44.86669 | 10.33120 | 29026 ft | 458 kts | 29° |
| 2026-05-04 19:26 | 44.89352 | 10.35568 | 29484 ft | 460 kts | 30° |
| 2026-05-04 19:26 | 44.92031 | 10.38088 | 29779 ft | 465 kts | 31° |
| 2026-05-04 19:27 | 44.94728 | 10.40646 | 30079 ft | 469 kts | 31° |
| 2026-05-04 19:27 | 44.97442 | 10.43210 | 30377 ft | 471 kts | 31° |
| 2026-05-04 19:27 | 45.00180 | 10.45778 | 30700 ft | 472 kts | 31° |
| 2026-05-04 19:27 | 45.02925 | 10.48337 | 31025 ft | 473 kts | 30° |
| 2026-05-04 19:28 | 45.05682 | 10.50895 | 31318 ft | 475 kts | 30° |
| 2026-05-04 19:28 | 45.08454 | 10.53463 | 31600 ft | 477 kts | 30° |
| 2026-05-04 19:28 | 45.11228 | 10.56032 | 32000 ft | 475 kts | 30° |
| 2026-05-04 19:28 | 45.13984 | 10.58588 | 32514 ft | 471 kts | 30° |
| 2026-05-04 19:29 | 45.16715 | 10.61123 | 32931 ft | 469 kts | 30° |
| 2026-05-04 19:29 | 45.19440 | 10.63655 | 33272 ft | 469 kts | 30° |
| 2026-05-04 19:29 | 45.22174 | 10.66199 | 33581 ft | 470 kts | 30° |
| 2026-05-04 19:29 | 45.24904 | 10.68743 | 33953 ft | 469 kts | 30° |
| 2026-05-04 19:30 | 45.27625 | 10.71281 | 34322 ft | 467 kts | 31° |
| 2026-05-04 19:30 | 45.30301 | 10.73782 | 34640 ft | 466 kts | 31° |
| 2026-05-04 19:30 | 45.33004 | 10.76310 | 34921 ft | 466 kts | 30° |
| 2026-05-04 19:30 | 45.35710 | 10.78844 | 35196 ft | 466 kts | 30° |
| 2026-05-04 19:31 | 45.38412 | 10.81377 | 35493 ft | 465 kts | 30° |
| 2026-05-04 19:31 | 45.41143 | 10.83940 | 35802 ft | 464 kts | 30° |
| 2026-05-04 19:31 | 45.43833 | 10.86468 | 36085 ft | 463 kts | 30° |
| 2026-05-04 19:31 | 45.46488 | 10.88965 | 36353 ft | 463 kts | 31° |
| 2026-05-04 19:32 | 45.49205 | 10.91525 | 36656 ft | 462 kts | 31° |
| 2026-05-04 19:32 | 45.51842 | 10.94012 | 36944 ft | 461 kts | 31° |
| 2026-05-04 19:32 | 45.54510 | 10.96531 | 37211 ft | 460 kts | 31° |
| 2026-05-04 19:32 | 45.57176 | 10.99051 | 37489 ft | 459 kts | 30° |
| 2026-05-04 19:33 | 45.59834 | 11.01566 | 37807 ft | 457 kts | 30° |
| 2026-05-04 19:33 | 45.62480 | 11.04073 | 38063 ft | 457 kts | 30° |
| 2026-05-04 19:33 | 45.65136 | 11.06591 | 38073 ft | 461 kts | 31° |
| 2026-05-04 19:34 | 45.70480 | 11.11667 | 38093 ft | 461 kts | 31° |
| 2026-05-04 19:34 | 45.75810 | 11.16746 | 38102 ft | 454 kts | 31° |
| 2026-05-04 19:35 | 45.81057 | 11.21755 | 38138 ft | 453 kts | 31° |
| 2026-05-04 19:35 | 45.86294 | 11.26763 | 38147 ft | 452 kts | 31° |
| 2026-05-04 19:36 | 45.91515 | 11.31769 | 38140 ft | 450 kts | 31° |
| 2026-05-04 19:36 | 45.96724 | 11.36777 | 38163 ft | 451 kts | 31° |
| 2026-05-04 19:37 | 46.01945 | 11.41807 | 38161 ft | 452 kts | 31° |
| 2026-05-04 19:37 | 46.07174 | 11.46856 | 38157 ft | 453 kts | 31° |
| 2026-05-04 19:38 | 46.12413 | 11.51928 | 38132 ft | 455 kts | 31° |
| 2026-05-04 19:38 | 46.17675 | 11.57034 | 38105 ft | 457 kts | 31° |
| 2026-05-04 19:39 | 46.22912 | 11.62127 | 38093 ft | 457 kts | 31° |
| 2026-05-04 19:39 | 46.28191 | 11.67275 | 38094 ft | 458 kts | 31° |
| 2026-05-04 19:40 | 46.33495 | 11.72463 | 38097 ft | 458 kts | 31° |
| 2026-05-04 19:40 | 46.38776 | 11.77641 | 38080 ft | 459 kts | 33° |
| 2026-05-04 19:40 | 46.41232 | 11.80596 | 38053 ft | 461 kts | 44° |
| 2026-05-04 19:41 | 46.43342 | 11.84104 | 37868 ft | 463 kts | 52° |
| 2026-05-04 19:41 | 46.45032 | 11.87999 | 37653 ft | 461 kts | 61° |
| 2026-05-04 19:41 | 46.46532 | 11.92164 | 37497 ft | 459 kts | 62° |
| 2026-05-04 19:41 | 46.47961 | 11.96231 | 37282 ft | 459 kts | 62° |
| 2026-05-04 19:42 | 46.49413 | 12.00366 | 37154 ft | 462 kts | 62° |
| 2026-05-04 19:42 | 46.52358 | 12.08661 | 37058 ft | 461 kts | 62° |
| 2026-05-04 19:43 | 46.55316 | 12.16901 | 37073 ft | 459 kts | 62° |
| 2026-05-04 19:43 | 46.58269 | 12.25126 | 37107 ft | 460 kts | 62° |
| 2026-05-04 19:44 | 46.61224 | 12.33385 | 37125 ft | 460 kts | 62° |
| 2026-05-04 19:44 | 46.64188 | 12.41699 | 37118 ft | 461 kts | 62° |
| 2026-05-04 19:45 | 46.67148 | 12.50038 | 37111 ft | 461 kts | 62° |
| 2026-05-04 19:45 | 46.70088 | 12.58339 | 37094 ft | 460 kts | 63° |
| 2026-05-04 19:46 | 46.72398 | 12.67039 | 37080 ft | 460 kts | 72° |
| 2026-05-04 19:46 | 46.74309 | 12.75922 | 37064 ft | 459 kts | 72° |
| 2026-05-04 19:47 | 46.76221 | 12.84805 | 37052 ft | 459 kts | 72° |
| 2026-05-04 19:47 | 46.78165 | 12.93663 | 37065 ft | 458 kts | 72° |
| 2026-05-04 19:48 | 46.80115 | 13.02498 | 37056 ft | 457 kts | 72° |
| 2026-05-04 19:48 | 46.82059 | 13.11323 | 37040 ft | 456 kts | 72° |
| 2026-05-04 19:49 | 46.83988 | 13.20125 | 37060 ft | 454 kts | 72° |
| 2026-05-04 19:49 | 46.85905 | 13.28912 | 37052 ft | 454 kts | 72° |
| 2026-05-04 19:50 | 46.87811 | 13.37691 | 37057 ft | 453 kts | 72° |
| 2026-05-04 19:50 | 46.89712 | 13.46487 | 37045 ft | 454 kts | 72° |
| 2026-05-04 19:51 | 46.91611 | 13.55303 | 37041 ft | 455 kts | 72° |
| 2026-05-04 19:51 | 46.93504 | 13.64130 | 37039 ft | 455 kts | 72° |
| 2026-05-04 19:52 | 46.95391 | 13.72974 | 37024 ft | 455 kts | 72° |
| 2026-05-04 19:52 | 46.97284 | 13.81878 | 37036 ft | 455 kts | 73° |
| 2026-05-04 19:53 | 46.99155 | 13.90721 | 37030 ft | 454 kts | 72° |
| 2026-05-04 19:53 | 47.01017 | 13.99554 | 37017 ft | 454 kts | 73° |
| 2026-05-04 19:54 | 47.02871 | 14.08393 | 37015 ft | 454 kts | 72° |
| 2026-05-04 19:54 | 47.04716 | 14.17230 | 37022 ft | 453 kts | 72° |
| 2026-05-04 19:55 | 47.06555 | 14.26080 | 37016 ft | 453 kts | 73° |
| 2026-05-04 19:55 | 47.08386 | 14.34928 | 37016 ft | 453 kts | 73° |
| 2026-05-04 19:56 | 47.10209 | 14.43776 | 37023 ft | 453 kts | 73° |
| 2026-05-04 19:56 | 47.12000 | 14.52644 | 37002 ft | 453 kts | 75° |
| 2026-05-04 19:57 | 47.13558 | 14.61610 | 36991 ft | 453 kts | 76° |
| 2026-05-04 19:57 | 47.15048 | 14.70576 | 36992 ft | 452 kts | 76° |
| 2026-05-04 19:58 | 47.16552 | 14.79538 | 36997 ft | 451 kts | 76° |
| 2026-05-04 19:58 | 47.18065 | 14.88476 | 36995 ft | 451 kts | 76° |
| 2026-05-04 19:59 | 47.19319 | 14.95901 | 36984 ft | 450 kts | 76° |
| 2026-05-04 19:59 | 47.20821 | 15.04825 | 36978 ft | 449 kts | 76° |
| 2026-05-04 20:00 | 47.22554 | 15.15191 | 36984 ft | 448 kts | 76° |
| 2026-05-04 20:00 | 47.24044 | 15.24153 | 36978 ft | 448 kts | 76° |
| 2026-05-04 20:01 | 47.25269 | 15.31557 | 36973 ft | 448 kts | 76° |
| 2026-05-04 20:01 | 47.26736 | 15.40470 | 36970 ft | 448 kts | 76° |
| 2026-05-04 20:02 | 47.28194 | 15.49377 | 36970 ft | 447 kts | 76° |
| 2026-05-04 20:02 | 47.29641 | 15.58261 | 36926 ft | 442 kts | 76° |
| 2026-05-04 20:02 | 47.30351 | 15.62641 | 36514 ft | 438 kts | 76° |
| 2026-05-04 20:03 | 47.31057 | 15.67002 | 35890 ft | 439 kts | 76° |
| 2026-05-04 20:03 | 47.31768 | 15.71406 | 35201 ft | 443 kts | 76° |
| 2026-05-04 20:03 | 47.32481 | 15.75840 | 34530 ft | 446 kts | 76° |
| 2026-05-04 20:03 | 47.33198 | 15.80306 | 33879 ft | 449 kts | 76° |
| 2026-05-04 20:04 | 47.33916 | 15.84796 | 33127 ft | 451 kts | 76° |
| 2026-05-04 20:04 | 47.34640 | 15.89339 | 32224 ft | 458 kts | 76° |
| 2026-05-04 20:04 | 47.35369 | 15.93918 | 31519 ft | 459 kts | 76° |
| 2026-05-04 20:04 | 47.36100 | 15.98518 | 30745 ft | 462 kts | 76° |
| 2026-05-04 20:05 | 47.37013 | 16.03029 | 30246 ft | 457 kts | 67° |
| 2026-05-04 20:05 | 47.38366 | 16.07250 | 29594 ft | 453 kts | 59° |
| 2026-05-04 20:05 | 47.40056 | 16.11156 | 28990 ft | 449 kts | 56° |
| 2026-05-04 20:05 | 47.41770 | 16.15002 | 28302 ft | 447 kts | 54° |
| 2026-05-04 20:06 | 47.43475 | 16.18823 | 27713 ft | 444 kts | 56° |
| 2026-05-04 20:06 | 47.45158 | 16.22626 | 27132 ft | 441 kts | 55° |
| 2026-05-04 20:06 | 47.46817 | 16.26404 | 26627 ft | 436 kts | 56° |
| 2026-05-04 20:06 | 47.48456 | 16.30159 | 25973 ft | 435 kts | 56° |
| 2026-05-04 20:07 | 47.50083 | 16.33909 | 25492 ft | 430 kts | 56° |
| 2026-05-04 20:07 | 47.51689 | 16.37625 | 24962 ft | 427 kts | 57° |
| 2026-05-04 20:07 | 47.53282 | 16.41323 | 24449 ft | 425 kts | 56° |
| 2026-05-04 20:07 | 47.54864 | 16.44995 | 23886 ft | 423 kts | 56° |
| 2026-05-04 20:08 | 47.56444 | 16.48665 | 23382 ft | 420 kts | 56° |
| 2026-05-04 20:08 | 47.57985 | 16.52251 | 22811 ft | 417 kts | 57° |
| 2026-05-04 20:08 | 47.59563 | 16.55927 | 22192 ft | 416 kts | 57° |
| 2026-05-04 20:08 | 47.61079 | 16.59465 | 21749 ft | 410 kts | 57° |
| 2026-05-04 20:09 | 47.62624 | 16.63075 | 21216 ft | 408 kts | 57° |
| 2026-05-04 20:09 | 47.64119 | 16.66572 | 20714 ft | 405 kts | 58° |
| 2026-05-04 20:09 | 47.65627 | 16.70105 | 20112 ft | 406 kts | 58° |
| 2026-05-04 20:09 | 47.67128 | 16.73624 | 19648 ft | 402 kts | 58° |
| 2026-05-04 20:10 | 47.68619 | 16.77128 | 19104 ft | 401 kts | 58° |
| 2026-05-04 20:10 | 47.70098 | 16.80606 | 18723 ft | 396 kts | 58° |
| 2026-05-04 20:10 | 47.71561 | 16.84051 | 18256 ft | 393 kts | 59° |
| 2026-05-04 20:10 | 47.73015 | 16.87481 | 17678 ft | 393 kts | 59° |
| 2026-05-04 20:11 | 47.74461 | 16.90896 | 17204 ft | 389 kts | 59° |
| 2026-05-04 20:11 | 47.75895 | 16.94289 | 16688 ft | 387 kts | 59° |
| 2026-05-04 20:11 | 47.77322 | 16.97666 | 16225 ft | 384 kts | 59° |
| 2026-05-04 20:11 | 47.78732 | 17.01011 | 15721 ft | 382 kts | 59° |
| 2026-05-04 20:12 | 47.80140 | 17.04350 | 15277 ft | 379 kts | 59° |
| 2026-05-04 20:12 | 47.81531 | 17.07653 | 14834 ft | 375 kts | 59° |
| 2026-05-04 20:12 | 47.82955 | 17.10899 | 14350 ft | 375 kts | 53° |
| 2026-05-04 20:12 | 47.84761 | 17.13681 | 13883 ft | 374 kts | 39° |
| 2026-05-04 20:13 | 47.86946 | 17.15855 | 13425 ft | 372 kts | 31° |
| 2026-05-04 20:13 | 47.89132 | 17.17786 | 12953 ft | 369 kts | 31° |
| 2026-05-04 20:13 | 47.91339 | 17.19743 | 12353 ft | 370 kts | 31° |
| 2026-05-04 20:13 | 47.93561 | 17.21732 | 11667 ft | 375 kts | 31° |
| 2026-05-04 20:14 | 47.95791 | 17.23745 | 11146 ft | 373 kts | 31° |
| 2026-05-04 20:14 | 47.98008 | 17.25757 | 10630 ft | 364 kts | 31° |
| 2026-05-04 20:14 | 48.00150 | 17.27708 | 10124 ft | 357 kts | 32° |
| 2026-05-04 20:14 | 48.02245 | 17.29621 | 9603 ft | 350 kts | 32° |
| 2026-05-04 20:15 | 48.04303 | 17.31504 | 9068 ft | 344 kts | 32° |
| 2026-05-04 20:15 | 48.06326 | 17.33357 | 8557 ft | 337 kts | 32° |
| 2026-05-04 20:15 | 48.08308 | 17.35174 | 8055 ft | 332 kts | 32° |
| 2026-05-04 20:15 | 48.10262 | 17.36968 | 7562 ft | 327 kts | 32° |
| 2026-05-04 20:16 | 48.12188 | 17.38738 | 7073 ft | 323 kts | 32° |
| 2026-05-04 20:16 | 48.14086 | 17.40484 | 6600 ft | 319 kts | 32° |
| 2026-05-04 20:16 | 48.15960 | 17.42210 | 6157 ft | 313 kts | 32° |
| 2026-05-04 20:16 | 48.17802 | 17.43906 | 5731 ft | 308 kts | 32° |
| 2026-05-04 20:17 | 48.19619 | 17.45580 | 5301 ft | 304 kts | 32° |
| 2026-05-04 20:17 | 48.21403 | 17.47224 | 5037 ft | 297 kts | 32° |
| 2026-05-04 20:17 | 48.23169 | 17.48791 | 4809 ft | 293 kts | 24° |
| 2026-05-04 20:17 | 48.25117 | 17.49401 | 4642 ft | 282 kts | 354° |
| 2026-05-04 20:18 | 48.26960 | 17.48702 | 4523 ft | 268 kts | 330° |
| 2026-05-04 20:18 | 48.28444 | 17.47150 | 4392 ft | 255 kts | 311° |
| 2026-05-04 20:18 | 48.29661 | 17.45278 | 4263 ft | 247 kts | 306° |
| 2026-05-04 20:18 | 48.30438 | 17.43096 | 3976 ft | 235 kts | 273° |
| 2026-05-04 20:19 | 48.30152 | 17.40821 | 3745 ft | 218 kts | 235° |
| 2026-05-04 20:19 | 48.29250 | 17.39063 | 3469 ft | 209 kts | 224° |
| 2026-05-04 20:19 | 48.28261 | 17.37503 | 3199 ft | 203 kts | 220° |
| 2026-05-04 20:19 | 48.27267 | 17.36058 | 2941 ft | 193 kts | 219° |
| 2026-05-04 20:20 | 48.26331 | 17.34713 | 2698 ft | 180 kts | 218° |
| 2026-05-04 20:20 | 48.25461 | 17.33462 | 2468 ft | 168 kts | 218° |
| 2026-05-04 20:20 | 48.24639 | 17.32278 | 2260 ft | 158 kts | 217° |
| 2026-05-04 20:20 | 48.23880 | 17.31181 | 2049 ft | 145 kts | 216° |
| 2026-05-04 20:21 | 48.23169 | 17.30157 | 1893 ft | 138 kts | 216° |
| 2026-05-04 20:21 | 48.22471 | 17.29154 | 1710 ft | 139 kts | 215° |
| 2026-05-04 20:21 | 48.21089 | 17.27166 | 1336 ft | 137 kts | 217° |
| 2026-05-04 20:22 | 48.20374 | 17.26167 | 1122 ft | 146 kts | 218° |
| 2026-05-04 20:22 | 48.19601 | 17.25125 | 938 ft | 152 kts | 221° |
| 2026-05-04 20:22 | 48.18865 | 17.23994 | 778 ft | 152 kts | 221° |
| 2026-05-04 20:22 | 48.18114 | 17.22888 | 574 ft | 151 kts | 222° |
| 2026-05-04 20:23 | 48.17365 | 17.21795 | 438 ft | 144 kts | 225° |
| 2026-05-04 20:23 | 48.16791 | 17.20957 | 429 ft | 80 kts | 224° |
| 2026-05-04 20:23 | 48.16576 | 17.20646 | 440 ft | 12 kts | 231° |
| 2026-05-04 20:23 | 48.16588 | 17.20550 | 434 ft | 10 kts | 309° |
| 2026-05-04 20:24 | 48.16635 | 17.20472 | 433 ft | 10 kts | 312° |
| 2026-05-04 20:24 | 48.16684 | 17.20396 | 433 ft | 11 kts | 316° |
| 2026-05-04 20:24 | 48.16742 | 17.20310 | 433 ft | 12 kts | 314° |
| 2026-05-04 20:24 | 48.16793 | 17.20231 | 436 ft | 7 kts | 314° |
| 2026-05-04 20:25 | 48.16827 | 17.20180 | 437 ft | 7 kts | 314° |
| 2026-05-04 20:25 | 48.16861 | 17.20134 | 434 ft | 7 kts | 320° |
| 2026-05-04 20:25 | 48.16882 | 17.20103 | 436 ft | 4 kts | 314° |
| 2026-05-04 20:25 | 48.16900 | 17.20075 | 434 ft | 2 kts | 314° |
| 2026-05-04 20:26 | 48.16908 | 17.20063 | 435 ft | 1 kts | 313° |
| 2026-05-04 20:26 | 48.16908 | 17.20062 | 435 ft | 0 kts | 313° |